OSDI/DAM METAR and TAF weather

Enter ICAO airport designator
Station Type Date Time Source
OSDI METAR 2018/12/12 07:00 UTC NOAA

OSDI 120700Z 21017KT CAVOK 13/078 Q1018


Station Type Date Time Source
OSDI Decoded METAR 2018/12/12 07:00 UTC NOAA

Damascus Int. Airport, Syria (OSDI) 33-25N 036-31E 609M
Dec 12, 2018 - 02:00 AM EST / 2018.12.12 0700 UTC
Wind: from the SSW (210 degrees) at 20 MPH (17 KT):0
Visibility: greater than 7 mile(s):0
Temperature: 55 F (13 C)
Dew Point: 44 F (7 C)
Relative Humidity: 66%
Pressure (altimeter): 30.06 in. Hg (1018 hPa)
ob: OSDI 120700Z 21017KT CAVOK 13/078 Q1018
cycle: 7

Station Type Date Time Source
OSDI TAF 2018/12/11 18:06 UTC NOAA

TAF TAF OSDI 111605Z 1118/1224 22015KT 9999 SCT030 BKN100 PROB30
TEMPO 1118/1218 24015G30KT 5000 SHRA FEW026 CB BKN030


Example: see airport list